createdAt,value
2018-12-02T00:02:20.032Z,0.73
2018-12-02T00:04:53.354Z,0.70
2018-12-02T00:07:42.214Z,0.65
2018-12-02T00:10:21.682Z,0.68
2018-12-02T00:12:54.250Z,0.64
2018-12-02T00:15:30.930Z,0.59
2018-12-02T00:18:03.999Z,0.54
2018-12-02T00:20:36.760Z,0.55
2018-12-02T00:23:10.379Z,0.51
2018-12-02T00:25:43.697Z,0.50
2018-12-02T00:28:16.107Z,0.38
2018-12-02T00:30:48.639Z,0.36
2018-12-02T00:33:21.037Z,0.29
2018-12-02T00:35:53.538Z,0.26
2018-12-02T00:38:26.029Z,0.26
2018-12-02T00:40:58.533Z,0.10
2018-12-02T00:43:30.960Z,0.08
2018-12-02T00:46:03.425Z,0.00
2018-12-02T00:48:35.934Z,0.00
2018-12-02T00:51:08.595Z,-0.03
2018-12-02T00:53:41.015Z,-0.11
2018-12-02T00:56:10.212Z,-0.11
2018-12-02T00:58:42.732Z,-0.18
2018-12-02T01:01:15.180Z,-0.23
2018-12-02T01:03:47.602Z,-0.23
2018-12-02T01:06:20.035Z,-0.24
2018-12-02T01:08:52.460Z,-0.23
2018-12-02T01:11:24.948Z,-0.20
2018-12-02T01:13:57.525Z,-0.23
2018-12-02T01:16:30.072Z,-0.24
2018-12-02T01:19:02.541Z,-0.25
2018-12-02T01:21:37.262Z,-0.30
2018-12-02T01:24:09.665Z,-0.19
2018-12-02T01:26:42.076Z,-0.11
2018-12-02T01:29:14.705Z,-0.17
2018-12-02T01:31:47.222Z,-0.31
2018-12-02T01:34:19.732Z,-0.09
2018-12-02T01:36:52.231Z,-0.20
2018-12-02T01:39:24.652Z,-0.26
2018-12-02T01:41:57.319Z,-0.38
2018-12-02T01:44:29.786Z,-0.59
2018-12-02T01:47:02.190Z,-0.45
2018-12-02T01:49:34.663Z,-0.44
2018-12-02T01:52:07.790Z,-0.41
2018-12-02T01:54:40.222Z,-0.49
2018-12-02T01:57:12.793Z,-0.61
2018-12-02T01:59:45.193Z,-0.81
2018-12-02T02:02:17.670Z,-0.96
2018-12-02T02:04:50.197Z,-0.77
2018-12-02T02:07:22.612Z,-0.57
2018-12-02T02:09:55.025Z,-0.56
2018-12-02T02:12:27.511Z,-0.58
2018-12-02T02:14:59.963Z,-0.69
2018-12-02T02:17:32.488Z,-0.80
2018-12-02T02:20:05.357Z,-0.85
2018-12-02T02:22:37.992Z,-0.89
2018-12-02T02:25:17.395Z,-0.81
2018-12-02T02:27:54.885Z,-0.80
2018-12-02T02:30:31.785Z,-0.87
2018-12-02T02:33:04.209Z,-0.88
2018-12-02T02:35:36.588Z,-0.90
2018-12-02T02:38:09.552Z,-0.94
2018-12-02T02:40:42.010Z,-0.97
2018-12-02T02:43:14.423Z,-0.89
2018-12-02T02:45:46.861Z,-0.72
2018-12-02T02:48:19.256Z,-1.12
2018-12-02T02:50:51.709Z,-1.02
2018-12-02T02:53:24.135Z,-1.23
2018-12-02T02:55:56.682Z,-1.13
2018-12-02T02:58:29.059Z,-1.13
2018-12-02T03:01:02.383Z,-0.88
2018-12-02T03:03:35.720Z,-0.74
2018-12-02T03:06:08.371Z,-0.73
2018-12-02T03:08:40.749Z,-0.88
2018-12-02T03:11:13.155Z,-0.79
2018-12-02T03:13:46.085Z,-0.68
2018-12-02T03:16:18.784Z,-0.57
2018-12-02T03:18:51.153Z,-0.66
2018-12-02T03:21:23.658Z,-0.80
2018-12-02T03:23:56.181Z,-0.60
2018-12-02T03:26:28.666Z,-0.49
2018-12-02T03:29:01.093Z,-0.52
2018-12-02T03:31:34.447Z,-0.70
2018-12-02T03:34:06.928Z,-0.69
2018-12-02T03:36:39.372Z,-0.67
2018-12-02T03:39:11.856Z,-0.67
2018-12-02T03:41:44.846Z,-0.61
2018-12-02T03:44:17.669Z,-0.67
2018-12-02T03:46:50.166Z,-0.71
2018-12-02T03:49:22.601Z,-0.72
2018-12-02T03:51:55.161Z,-0.67
2018-12-02T03:54:27.535Z,-0.75
2018-12-02T03:57:00.110Z,-0.64
2018-12-02T03:59:32.499Z,-0.51
2018-12-02T04:02:05.022Z,-0.39
2018-12-02T04:04:37.483Z,-0.19
2018-12-02T04:07:09.879Z,-0.15
2018-12-02T04:09:42.235Z,-0.03
2018-12-02T04:12:14.676Z,0.00
2018-12-02T04:14:47.067Z,0.10
2018-12-02T04:17:19.686Z,0.03
2018-12-02T04:19:53.005Z,0.05
2018-12-02T04:22:25.450Z,0.05
2018-12-02T04:24:57.836Z,0.26
2018-12-02T04:27:30.264Z,0.18
2018-12-02T04:30:02.678Z,0.31
2018-12-02T04:32:35.186Z,0.26
2018-12-02T04:35:09.511Z,0.50
2018-12-02T04:37:41.972Z,0.43
2018-12-02T04:40:15.652Z,0.41
2018-12-02T04:42:48.021Z,0.42
2018-12-02T04:45:23.337Z,0.36
2018-12-02T04:47:55.803Z,0.44
2018-12-02T04:50:28.411Z,0.54
2018-12-02T04:53:00.913Z,0.43
2018-12-02T04:55:33.303Z,0.42
2018-12-02T04:58:05.815Z,0.39
2018-12-02T05:00:38.192Z,0.64
2018-12-02T05:03:10.610Z,0.60
2018-12-02T05:05:43.019Z,0.50
2018-12-02T05:08:15.394Z,0.76
2018-12-02T05:10:47.798Z,0.53
2018-12-02T05:13:20.287Z,0.53
2018-12-02T05:15:52.666Z,0.42
2018-12-02T05:18:25.140Z,0.49
2018-12-02T05:20:57.637Z,0.43
2018-12-02T05:23:30.080Z,0.41
2018-12-02T05:26:02.559Z,0.52
2018-12-02T05:28:34.966Z,0.40
2018-12-02T05:31:07.653Z,0.58
2018-12-02T05:33:40.075Z,0.57
2018-12-02T05:36:12.560Z,0.48
2018-12-02T05:38:44.968Z,0.48
2018-12-02T05:41:17.435Z,0.64
2018-12-02T05:43:49.926Z,0.72
2018-12-02T05:46:24.395Z,0.80
2018-12-02T05:48:55.663Z,0.84
2018-12-02T05:51:28.116Z,0.74
2018-12-02T05:54:00.565Z,0.79
2018-12-02T05:56:32.970Z,0.88
2018-12-02T05:59:05.359Z,0.96
2018-12-02T06:01:37.745Z,0.81
2018-12-02T06:04:11.905Z,0.86
2018-12-02T06:06:44.459Z,0.83
2018-12-02T06:09:17.792Z,0.91
2018-12-02T06:11:50.343Z,1.00
2018-12-02T06:14:22.895Z,1.05
2018-12-02T06:16:55.295Z,1.00
2018-12-02T06:19:28.011Z,1.02
2018-12-02T06:22:00.432Z,0.94
2018-12-02T06:24:33.128Z,1.05
2018-12-02T06:27:05.538Z,1.10
2018-12-02T06:29:38.374Z,1.13
2018-12-02T06:32:12.292Z,1.11
2018-12-02T06:34:44.817Z,1.30
2018-12-02T06:37:17.190Z,1.24
2018-12-02T06:39:49.690Z,1.25
2018-12-02T11:32:07.058Z,4.07
2018-12-02T11:34:45.959Z,3.61
2018-12-02T11:37:23.411Z,3.36
2018-12-02T11:40:45.960Z,3.43
2018-12-02T11:42:33.780Z,3.61
2018-12-02T11:45:12.881Z,3.44
2018-12-02T11:48:16.611Z,3.85
2018-12-02T11:51:19.697Z,4.10
2018-12-02T11:53:53.135Z,3.79
2018-12-02T11:56:34.518Z,3.97
2018-12-02T11:59:17.256Z,3.70
2018-12-02T12:01:57.069Z,3.78
2018-12-02T12:04:29.573Z,3.75
2018-12-02T12:07:15.916Z,3.60
2018-12-02T12:10:03.448Z,3.39
2018-12-02T12:12:36.379Z,3.53
2018-12-02T12:15:20.637Z,3.44
2018-12-02T12:18:08.528Z,3.35
2018-12-02T12:20:48.339Z,3.37
2018-12-02T12:23:33.907Z,3.44
2018-12-02T12:26:15.958Z,3.48
2018-12-02T12:29:03.306Z,3.46
2018-12-02T12:31:35.954Z,3.41
2018-12-02T12:34:17.614Z,3.51
2018-12-02T12:36:57.510Z,3.53
2018-12-02T12:39:32.887Z,3.51
2018-12-02T12:42:08.676Z,3.63
2018-12-02T12:44:40.477Z,3.65
2018-12-02T12:47:13.367Z,3.63
2018-12-02T12:49:58.139Z,3.53
2018-12-02T12:52:45.221Z,3.56
2018-12-02T12:55:22.083Z,3.49
2018-12-02T12:57:59.348Z,3.65
2018-12-02T13:00:47.554Z,3.53
2018-12-02T13:03:20.301Z,3.41
2018-12-02T13:05:56.936Z,3.42
2018-12-02T13:08:29.551Z,3.47
2018-12-02T13:11:06.862Z,3.41
2018-12-02T13:13:55.361Z,3.40
2018-12-02T13:16:32.056Z,3.43
2018-12-02T13:19:02.584Z,3.46
2018-12-02T13:21:52.361Z,3.45
2018-12-02T13:24:25.760Z,3.47
2018-12-02T13:26:58.604Z,3.40
2018-12-02T13:29:31.115Z,3.39
2018-12-02T13:32:04.646Z,3.36
2018-12-02T13:34:37.237Z,3.29
2018-12-02T13:37:09.964Z,3.34
2018-12-02T13:39:42.522Z,3.29
2018-12-02T13:42:17.895Z,3.27
2018-12-02T13:44:49.808Z,3.27
2018-12-02T13:47:22.305Z,3.27
2018-12-02T13:50:01.407Z,3.26
2018-12-02T13:52:50.041Z,3.23
2018-12-02T13:55:35.066Z,3.27
2018-12-02T13:58:13.182Z,3.22
2018-12-02T14:00:46.196Z,3.24
2018-12-02T14:03:28.909Z,3.22
2018-12-02T14:06:07.673Z,3.26
2018-12-02T14:08:42.758Z,3.21
2018-12-02T14:11:22.141Z,3.25
2018-12-02T14:14:20.559Z,3.27
2018-12-02T14:17:25.057Z,3.27
2018-12-02T14:20:26.316Z,3.26
2018-12-02T14:23:11.685Z,3.34
2018-12-02T14:25:47.391Z,3.32
2018-12-02T14:28:28.259Z,3.28
2018-12-02T14:31:02.295Z,3.27
2018-12-02T14:33:40.249Z,3.22
2018-12-02T14:36:20.747Z,3.25
2018-12-02T14:38:56.832Z,3.31
2018-12-02T14:41:29.915Z,3.29
2018-12-02T14:44:02.869Z,3.24
2018-12-02T14:47:14.152Z,3.25
2018-12-02T14:50:17.542Z,3.29
2018-12-02T14:53:03.558Z,3.28
2018-12-02T14:55:36.282Z,3.24
2018-12-02T14:58:17.823Z,3.23
2018-12-02T15:01:15.322Z,3.24
2018-12-02T15:04:00.247Z,3.31
2018-12-02T15:06:33.963Z,3.32
2018-12-02T15:09:12.536Z,3.36
2018-12-02T15:11:45.837Z,3.37
2018-12-02T15:14:27.881Z,3.43
2018-12-02T15:17:03.642Z,3.38
2018-12-02T15:19:57.516Z,3.42
2018-12-02T15:22:36.896Z,3.42
2018-12-02T15:25:26.253Z,3.42
2018-12-02T15:28:01.067Z,3.40
2018-12-02T15:30:58.580Z,3.42
2018-12-02T15:33:59.787Z,3.45
2018-12-02T15:36:32.377Z,3.43
2018-12-02T15:39:36.081Z,3.41
2018-12-02T15:42:17.258Z,3.36
2018-12-02T15:44:50.003Z,3.34
2018-12-02T15:47:22.936Z,3.27
2018-12-02T15:49:55.649Z,3.18
2018-12-02T15:52:29.525Z,3.22
2018-12-02T15:55:02.871Z,3.19
2018-12-02T15:57:35.707Z,3.12
2018-12-02T16:00:33.468Z,3.04
2018-12-02T16:03:07.600Z,2.97
2018-12-02T16:05:41.279Z,2.88
2018-12-02T16:08:14.229Z,2.85
2018-12-02T16:10:46.964Z,2.80
2018-12-02T16:13:26.490Z,2.76
2018-12-02T16:16:00.395Z,2.68
2018-12-02T16:18:33.010Z,2.67
2018-12-02T16:21:08.538Z,2.61
2018-12-02T16:23:40.573Z,2.57
2018-12-02T16:26:13.296Z,2.55
2018-12-02T16:28:45.931Z,2.56
